createdAt,value
2023-04-15T00:02:17.483Z,51.43
2023-04-15T00:04:43.658Z,52.80
2023-04-15T00:07:09.780Z,52.87
2023-04-15T00:09:35.896Z,52.30
2023-04-15T00:12:02.011Z,51.99
2023-04-15T00:14:28.152Z,51.77
2023-04-15T00:16:54.369Z,51.33
2023-04-15T00:19:20.583Z,51.57
2023-04-15T00:21:46.717Z,51.28
2023-04-15T00:24:12.862Z,51.07
2023-04-15T00:26:39.006Z,50.60
2023-04-15T00:29:05.117Z,51.21
2023-04-15T00:31:31.238Z,50.98
2023-04-15T00:33:57.357Z,51.41
2023-04-15T00:36:23.514Z,51.40
2023-04-15T00:39:07.822Z,51.18
2023-04-15T00:41:33.947Z,51.30
2023-04-15T00:44:00.047Z,51.43
2023-04-15T00:46:26.181Z,51.16
2023-04-15T00:48:52.324Z,51.18
2023-04-15T00:51:18.443Z,51.04
2023-04-15T00:53:44.581Z,51.20
2023-04-15T00:56:10.755Z,52.31
2023-04-15T00:58:36.932Z,52.09
2023-04-15T01:01:03.070Z,51.69
2023-04-15T01:03:29.231Z,51.05
2023-04-15T01:05:55.420Z,50.47
2023-04-15T01:08:21.588Z,51.36
2023-04-15T01:10:47.683Z,51.65
2023-04-15T01:13:13.785Z,51.72
2023-04-15T01:15:39.933Z,52.61
2023-04-15T01:23:40.301Z,52.40
2023-04-15T01:26:06.455Z,52.61
2023-04-15T01:31:23.009Z,52.31
2023-04-15T01:33:49.150Z,51.99
2023-04-15T01:36:15.294Z,54.00
2023-04-15T01:38:41.492Z,53.96
2023-04-15T01:41:07.648Z,54.22
2023-04-15T01:43:33.757Z,53.93
2023-04-15T01:45:59.872Z,53.66
2023-04-15T01:48:26.012Z,54.45
2023-04-15T01:50:52.156Z,55.33
2023-04-15T01:53:18.301Z,54.71
2023-04-15T01:55:44.408Z,54.83
2023-04-15T01:58:10.536Z,56.02
2023-04-15T02:00:36.686Z,57.39
2023-04-15T02:03:02.947Z,55.84
2023-04-15T02:05:29.151Z,55.75
2023-04-15T02:07:55.294Z,55.88
2023-04-15T02:10:21.426Z,56.05
2023-04-15T02:12:47.568Z,56.98
2023-04-15T02:15:13.713Z,57.15
2023-04-15T02:17:39.913Z,56.36
2023-04-15T02:20:06.026Z,55.68
2023-04-15T02:22:32.163Z,54.71
2023-04-15T02:24:58.305Z,53.79
2023-04-15T02:27:43.950Z,53.51
2023-04-15T02:30:10.093Z,53.76
2023-04-15T02:32:36.323Z,53.04
2023-04-15T02:35:02.488Z,53.15
2023-04-15T02:37:28.644Z,53.34
2023-04-15T02:39:54.749Z,53.22
2023-04-15T02:42:20.881Z,54.28
2023-04-15T02:44:47.010Z,54.66
2023-04-15T02:47:13.182Z,57.36
2023-04-15T02:49:39.327Z,57.20
2023-04-15T02:52:05.428Z,57.39
2023-04-15T02:54:31.554Z,58.17
2023-04-15T02:56:57.649Z,57.51
2023-04-15T02:59:23.785Z,57.32
2023-04-15T03:01:50.020Z,57.86
2023-04-15T03:04:16.302Z,57.97
2023-04-15T03:06:42.556Z,57.33
2023-04-15T03:09:08.692Z,57.97
2023-04-15T03:11:36.066Z,58.19
2023-04-15T03:25:13.207Z,54.27
2023-04-15T03:27:39.376Z,53.41
2023-04-15T03:30:05.501Z,54.02
2023-04-15T03:32:31.681Z,54.12
2023-04-15T03:34:57.820Z,54.18
2023-04-15T03:37:23.942Z,54.38
2023-04-15T03:39:50.057Z,54.61
2023-04-15T03:42:16.190Z,54.18
2023-04-15T03:44:42.270Z,54.61
2023-04-15T03:47:08.393Z,54.35
2023-04-15T03:49:34.537Z,54.16
2023-04-15T03:52:00.744Z,54.82
2023-04-15T03:54:26.913Z,55.49
2023-04-15T03:56:53.032Z,55.89
2023-04-15T03:59:19.180Z,57.01
2023-04-15T04:01:45.376Z,56.65
2023-04-15T04:04:11.625Z,56.24
2023-04-15T04:06:37.764Z,54.52
2023-04-15T04:09:03.967Z,54.72
2023-04-15T04:11:30.121Z,54.60
2023-04-15T04:13:56.319Z,54.56
2023-04-15T04:16:22.572Z,54.02
2023-04-15T04:18:48.844Z,53.87
2023-04-15T04:21:14.990Z,53.93
2023-04-15T04:23:41.114Z,53.77
2023-04-15T04:26:07.227Z,54.04
2023-04-15T04:28:33.375Z,54.20
2023-04-15T04:30:59.532Z,54.16
2023-04-15T04:33:25.687Z,54.07
2023-04-15T04:35:51.835Z,54.43
2023-04-15T04:38:17.964Z,54.68
2023-04-15T04:40:44.095Z,54.96
2023-04-15T04:43:10.192Z,55.58
2023-04-15T04:45:36.354Z,55.42
2023-04-15T04:48:02.512Z,55.62
2023-04-15T04:50:28.661Z,55.17
2023-04-15T04:52:54.777Z,55.17
2023-04-15T04:55:20.907Z,54.91
2023-04-15T04:58:05.192Z,55.22
2023-04-15T05:00:31.321Z,54.74
2023-04-15T05:11:23.171Z,55.53
2023-04-15T05:13:49.319Z,57.28
2023-04-15T05:24:39.300Z,58.45
2023-04-15T05:27:05.441Z,59.25
2023-04-15T05:30:15.432Z,58.22
2023-04-15T05:32:41.690Z,56.39
2023-04-15T05:35:07.869Z,55.54
2023-04-15T05:37:34.006Z,55.14
2023-04-15T05:40:00.185Z,55.31
2023-04-15T05:42:26.303Z,55.44
2023-04-15T05:44:52.474Z,54.85
2023-04-15T05:47:18.599Z,54.77
2023-04-15T05:49:44.731Z,57.22
2023-04-15T05:52:10.856Z,58.84
2023-04-15T05:54:36.946Z,57.10
2023-04-15T05:57:03.095Z,56.16
2023-04-15T05:59:29.302Z,54.92
2023-04-15T06:01:55.438Z,54.47
2023-04-15T06:04:21.643Z,55.16
2023-04-15T06:06:47.866Z,55.36
2023-04-15T06:09:14.019Z,55.01
2023-04-15T06:11:40.143Z,55.58
2023-04-15T06:14:06.287Z,55.84
2023-04-15T06:16:32.534Z,56.30
2023-04-15T06:18:58.833Z,60.48
2023-04-15T06:32:29.077Z,67.60
2023-04-15T06:34:55.218Z,68.05
2023-04-15T06:37:21.348Z,67.09
2023-04-15T06:39:47.508Z,65.44
2023-04-15T06:42:13.615Z,64.31
2023-04-15T06:44:39.691Z,61.03
2023-04-15T06:47:05.826Z,59.77
2023-04-15T06:49:31.952Z,59.80
2023-04-15T06:51:58.094Z,58.05
2023-04-15T06:54:24.243Z,56.08
2023-04-15T06:56:50.381Z,54.98
2023-04-15T06:59:16.489Z,53.69
2023-04-15T07:01:42.600Z,52.70
2023-04-15T07:04:08.746Z,52.09
2023-04-15T07:06:34.899Z,50.97
2023-04-15T07:09:14.106Z,49.76
2023-04-15T07:11:40.268Z,49.88
2023-04-15T07:14:06.401Z,49.84
2023-04-15T07:16:32.555Z,49.55
2023-04-15T07:18:58.767Z,50.52
2023-04-15T07:21:24.917Z,50.77
2023-04-15T07:23:51.067Z,50.74
2023-04-15T07:26:17.178Z,51.18
2023-04-15T07:28:43.309Z,49.87
2023-04-15T07:31:09.459Z,48.55
2023-04-15T07:33:35.598Z,49.34
2023-04-15T07:36:01.727Z,49.23
2023-04-15T07:38:27.884Z,48.62
2023-04-15T07:40:54.011Z,48.81
2023-04-15T07:43:20.117Z,48.61
2023-04-15T07:45:46.271Z,49.36
2023-04-15T07:48:12.560Z,51.11
2023-04-15T07:50:38.957Z,54.99
2023-04-15T07:55:58.240Z,57.32
2023-04-15T07:58:24.402Z,57.90
2023-04-15T08:00:50.572Z,57.83
2023-04-15T08:03:16.855Z,57.86
2023-04-15T08:05:43.079Z,58.89
2023-04-15T08:08:09.223Z,56.08
2023-04-15T08:10:35.343Z,55.62
2023-04-15T08:13:01.543Z,53.52
2023-04-15T08:15:27.696Z,53.63
2023-04-15T08:17:53.941Z,53.40
2023-04-15T08:20:20.152Z,53.09
2023-04-15T08:22:46.346Z,56.12
2023-04-15T08:25:12.532Z,57.54
2023-04-15T08:27:38.695Z,59.70
2023-04-15T08:30:05.180Z,60.59
2023-04-15T08:32:31.566Z,61.45
2023-04-15T08:34:57.718Z,63.24
2023-04-15T08:37:23.804Z,62.91
2023-04-15T08:39:49.928Z,65.25
2023-04-15T08:42:16.088Z,66.92
2023-04-15T08:44:42.244Z,67.55
2023-04-15T08:47:08.490Z,68.20
2023-04-15T08:49:34.714Z,67.08
2023-04-15T08:52:00.855Z,68.84
2023-04-15T08:54:26.967Z,68.32
2023-04-15T08:56:53.185Z,69.61
2023-04-15T08:59:19.358Z,72.66
2023-04-15T09:01:45.524Z,72.64
2023-04-15T09:04:11.767Z,74.84
2023-04-15T09:06:37.950Z,75.33
2023-04-15T09:09:04.213Z,75.08
2023-04-15T09:11:30.370Z,74.61
2023-04-15T09:13:56.480Z,74.81
2023-04-15T09:16:22.678Z,74.51
2023-04-15T09:18:48.871Z,73.67
2023-04-15T09:21:15.001Z,73.44
2023-04-15T09:23:41.290Z,71.89
2023-04-15T09:26:07.443Z,72.61
2023-04-15T09:28:33.548Z,71.81
2023-04-15T09:30:59.680Z,70.92
2023-04-15T09:33:25.951Z,70.43
2023-04-15T09:35:52.097Z,70.25
2023-04-15T09:38:18.244Z,69.98
2023-04-15T09:40:44.366Z,68.85
2023-04-15T09:43:10.470Z,68.56
2023-04-15T09:45:36.634Z,69.34
2023-04-15T09:48:02.825Z,70.42
2023-04-15T09:50:29.052Z,71.06
2023-04-15T09:52:55.187Z,73.35
2023-04-15T09:55:21.269Z,75.01
2023-04-15T09:57:47.472Z,75.17
2023-04-15T10:00:13.634Z,75.64
2023-04-15T10:02:39.992Z,77.73
2023-04-15T10:05:06.247Z,76.39
2023-04-15T10:07:32.412Z,72.40
2023-04-15T10:09:58.528Z,69.37
2023-04-15T10:12:24.643Z,69.25
2023-04-15T10:14:50.738Z,67.82
2023-04-15T10:17:16.933Z,66.49
2023-04-15T10:19:43.072Z,66.57
2023-04-15T10:24:49.225Z,62.91
2023-04-15T10:27:15.339Z,61.59
2023-04-15T10:29:41.468Z,60.83
2023-04-15T10:32:07.569Z,60.04
2023-04-15T10:34:33.685Z,57.92
2023-04-15T10:36:59.816Z,58.63
2023-04-15T10:39:25.899Z,58.78
2023-04-15T10:41:52.011Z,56.99
2023-04-15T10:44:18.111Z,56.14
2023-04-15T10:46:44.262Z,55.51
2023-04-15T10:49:10.366Z,54.74
2023-04-15T10:51:36.444Z,54.27
2023-04-15T10:54:02.533Z,51.93
2023-04-15T10:56:28.615Z,51.76
2023-04-15T10:58:54.709Z,51.62
2023-04-15T11:01:20.923Z,52.73
2023-04-15T11:03:47.164Z,52.66
2023-04-15T11:06:13.474Z,54.01
2023-04-15T11:08:39.570Z,57.48
2023-04-15T11:11:05.749Z,55.50
2023-04-15T11:13:31.861Z,62.07
2023-04-15T11:15:58.019Z,63.34
2023-04-15T11:18:24.197Z,61.91
2023-04-15T11:20:50.296Z,60.69
2023-04-15T11:23:16.457Z,60.95
2023-04-15T11:25:42.556Z,62.46
2023-04-15T11:28:08.709Z,63.24
2023-04-15T11:30:35.115Z,66.37
2023-04-15T11:33:01.272Z,66.51
2023-04-15T11:35:27.419Z,67.22
2023-04-15T11:37:53.504Z,66.30
2023-04-15T11:40:19.641Z,68.89
2023-04-15T11:42:49.638Z,67.18
2023-04-15T11:45:16.181Z,66.85
2023-04-15T11:47:42.300Z,65.65
2023-04-15T11:50:08.460Z,67.66
2023-04-15T11:52:34.569Z,68.22
2023-04-15T11:55:00.651Z,70.35
2023-04-15T11:57:26.754Z,69.93
2023-04-15T11:59:52.861Z,67.37
2023-04-15T12:02:19.080Z,68.13
2023-04-15T12:04:45.382Z,69.76
2023-04-15T12:07:11.549Z,70.88
2023-04-15T12:09:37.668Z,70.15
2023-04-15T12:12:03.775Z,70.57
2023-04-15T12:14:29.882Z,68.64
2023-04-15T12:16:58.328Z,66.96
2023-04-15T12:19:24.745Z,67.59
2023-04-15T12:21:50.914Z,67.51
2023-04-15T12:24:17.048Z,68.08
2023-04-15T12:26:43.150Z,70.91
2023-04-15T12:29:09.249Z,69.01
2023-04-15T12:31:35.428Z,68.72
2023-04-15T12:34:01.598Z,68.73
2023-04-15T12:36:27.764Z,67.40
2023-04-15T12:38:53.930Z,69.13
2023-04-15T12:41:20.033Z,68.28
2023-04-15T12:43:46.174Z,65.47
2023-04-15T12:46:12.275Z,67.02
2023-04-15T12:48:38.392Z,65.77
2023-04-15T12:51:05.738Z,65.58
2023-04-15T12:53:31.963Z,63.73
2023-04-15T12:55:58.061Z,65.73
2023-04-15T12:58:24.158Z,68.74
2023-04-15T13:00:50.248Z,69.84
2023-04-15T13:03:16.412Z,67.22
2023-04-15T13:05:42.633Z,67.12
2023-04-15T13:08:08.766Z,66.13
2023-04-15T13:10:34.866Z,69.57
2023-04-15T13:13:00.985Z,69.88
2023-04-15T13:15:27.135Z,67.82
2023-04-15T13:17:53.286Z,65.18
2023-04-15T13:20:19.444Z,66.27
2023-04-15T13:22:45.557Z,65.55
2023-04-15T13:25:11.666Z,63.40
2023-04-15T13:27:37.762Z,63.02
2023-04-15T13:30:03.843Z,63.64
2023-04-15T13:32:29.991Z,61.91
2023-04-15T13:34:56.118Z,62.54
2023-04-15T13:37:22.224Z,61.05
2023-04-15T13:39:48.340Z,59.68
2023-04-15T13:42:14.453Z,60.06
2023-04-15T13:44:40.569Z,58.27
2023-04-15T13:47:06.676Z,55.73
2023-04-15T13:49:32.787Z,55.46
2023-04-15T13:51:58.939Z,57.01
2023-04-15T13:54:25.029Z,59.32
2023-04-15T13:57:04.065Z,60.40
2023-04-15T13:59:30.178Z,61.30
2023-04-15T14:01:56.297Z,61.80
2023-04-15T14:04:22.524Z,62.19
2023-04-15T14:06:48.721Z,60.49
2023-04-15T14:09:14.845Z,58.81
2023-04-15T14:11:40.962Z,58.96
2023-04-15T14:14:07.162Z,59.18
2023-04-15T14:16:33.318Z,57.18
2023-04-15T14:18:59.456Z,56.81
2023-04-15T14:21:25.579Z,55.99
2023-04-15T14:23:51.682Z,55.26
2023-04-15T14:26:17.799Z,52.73
2023-04-15T14:28:43.929Z,54.42
2023-04-15T14:31:10.076Z,56.20
2023-04-15T14:33:37.062Z,58.83
2023-04-15T14:36:03.185Z,61.31
2023-04-15T14:38:29.294Z,59.31
2023-04-15T14:40:55.393Z,58.10
2023-04-15T14:43:21.809Z,59.52
2023-04-15T14:45:48.002Z,59.70
2023-04-15T14:48:14.147Z,61.94
2023-04-15T14:50:40.357Z,62.89
2023-04-15T14:53:06.454Z,63.29
2023-04-15T14:55:32.551Z,65.83
2023-04-15T14:57:58.644Z,65.03
2023-04-15T15:00:24.734Z,68.49
2023-04-15T15:02:50.933Z,67.57
2023-04-15T15:05:17.223Z,66.13
2023-04-15T15:07:43.441Z,66.97
2023-04-15T15:10:09.572Z,67.26
2023-04-15T15:12:35.695Z,68.02
2023-04-15T15:15:04.690Z,68.39
2023-04-15T15:17:33.374Z,68.66
2023-04-15T15:19:59.523Z,69.98
2023-04-15T15:22:25.633Z,69.80
2023-04-15T15:24:51.729Z,69.28
2023-04-15T15:27:17.860Z,67.80
2023-04-15T15:29:43.940Z,66.40
2023-04-15T15:32:10.023Z,66.98
2023-04-15T15:34:36.129Z,66.62
2023-04-15T15:37:02.240Z,67.06
2023-04-15T15:39:28.388Z,67.81
2023-04-15T15:41:54.477Z,65.47
2023-04-15T15:44:20.596Z,65.87
2023-04-15T15:46:46.765Z,65.51
2023-04-15T15:49:12.891Z,64.62
2023-04-15T15:51:38.991Z,64.15
2023-04-15T15:54:05.082Z,64.18
2023-04-15T15:56:31.195Z,64.11
2023-04-15T15:58:57.294Z,66.09
2023-04-15T16:01:23.434Z,66.23
2023-04-15T16:03:49.717Z,66.72
2023-04-15T16:06:15.956Z,66.48
2023-04-15T16:08:42.072Z,67.85
2023-04-15T16:11:08.166Z,67.25
2023-04-15T16:13:34.277Z,69.59
2023-04-15T16:16:00.406Z,69.21
2023-04-15T16:18:26.567Z,69.99
2023-04-15T16:20:52.675Z,70.09
2023-04-15T16:23:18.805Z,68.58
2023-04-15T16:25:44.976Z,67.44
2023-04-15T16:28:25.199Z,67.62
2023-04-15T16:30:52.727Z,67.45
2023-04-15T16:33:18.859Z,66.91
2023-04-15T16:35:44.954Z,66.40
2023-04-15T16:38:11.055Z,65.21
2023-04-15T16:40:37.175Z,66.71
2023-04-15T16:43:03.269Z,65.54
2023-04-15T16:45:29.378Z,65.30
2023-04-15T16:47:55.540Z,64.46
2023-04-15T16:50:21.675Z,63.95
2023-04-15T16:52:47.765Z,63.71
2023-04-15T16:55:13.899Z,64.48
2023-04-15T16:58:00.709Z,64.38
2023-04-15T17:00:26.070Z,64.98
2023-04-15T17:02:52.337Z,65.86
2023-04-15T17:05:18.506Z,67.48
2023-04-15T17:07:44.645Z,67.62
2023-04-15T17:10:10.743Z,67.72
2023-04-15T17:12:36.853Z,69.16
2023-04-15T17:15:03.031Z,67.89
2023-04-15T17:17:29.181Z,67.59
2023-04-15T17:19:58.042Z,70.14
2023-04-15T17:22:24.123Z,70.80
2023-04-15T17:24:50.220Z,71.39
2023-04-15T17:27:16.347Z,70.30
2023-04-15T17:29:42.616Z,70.88
2023-04-15T17:32:08.716Z,69.71
2023-04-15T17:34:49.401Z,69.08
2023-04-15T17:37:17.306Z,70.73
2023-04-15T17:39:43.443Z,71.17
2023-04-15T17:42:09.536Z,71.86
2023-04-15T17:44:35.655Z,71.25
2023-04-15T17:47:01.885Z,72.26
2023-04-15T17:49:28.010Z,72.53
2023-04-15T17:51:54.119Z,71.80
2023-04-15T17:54:20.200Z,71.85
2023-04-15T17:56:46.326Z,71.51
2023-04-15T17:59:12.431Z,73.20
2023-04-15T18:01:38.560Z,74.68
2023-04-15T18:04:05.127Z,75.31
2023-04-15T18:06:31.625Z,76.04
2023-04-15T18:08:57.739Z,74.47
2023-04-15T18:11:23.854Z,73.71
2023-04-15T18:13:49.990Z,73.46
2023-04-15T18:16:16.150Z,72.90
2023-04-15T18:18:42.293Z,73.11
2023-04-15T18:21:08.384Z,72.89
2023-04-15T18:23:34.489Z,72.90
2023-04-15T18:26:00.604Z,73.80
2023-04-15T18:28:26.710Z,74.95
2023-04-15T18:30:52.805Z,72.97
2023-04-15T18:33:18.920Z,73.53
2023-04-15T18:35:45.123Z,73.22
2023-04-15T18:38:11.222Z,72.06
2023-04-15T18:40:37.326Z,73.47
2023-04-15T18:43:03.426Z,73.13
2023-04-15T18:45:29.537Z,72.32
2023-04-15T18:47:55.882Z,73.10
2023-04-15T18:50:21.999Z,73.63
2023-04-15T18:52:48.097Z,72.00
2023-04-15T18:55:14.188Z,70.64
2023-04-15T18:57:40.309Z,68.53
2023-04-15T19:00:07.346Z,68.88
2023-04-15T19:02:33.550Z,69.42
2023-04-15T19:04:59.736Z,69.09
2023-04-15T19:07:25.816Z,69.07
2023-04-15T19:09:51.927Z,69.04
2023-04-15T19:12:18.039Z,67.83
2023-04-15T19:14:44.168Z,67.92
2023-04-15T19:17:10.252Z,67.07
2023-04-15T19:19:36.356Z,66.87
2023-04-15T19:22:02.469Z,68.11
2023-04-15T19:24:28.568Z,68.75
2023-04-15T19:26:54.704Z,69.39
2023-04-15T19:29:20.808Z,69.22
2023-04-15T19:31:46.900Z,67.40
2023-04-15T19:34:13.011Z,66.78
2023-04-15T19:36:39.195Z,66.21
2023-04-15T19:39:05.524Z,65.61
2023-04-15T19:41:31.797Z,64.90
2023-04-15T19:43:57.893Z,65.12
2023-04-15T19:46:24.036Z,66.27
2023-04-15T19:48:50.175Z,66.47
2023-04-15T19:51:16.270Z,66.75
2023-04-15T19:53:42.380Z,66.37
2023-04-15T19:56:08.498Z,65.43
2023-04-15T19:58:34.588Z,65.95
2023-04-15T20:01:00.677Z,66.19
2023-04-15T20:03:26.950Z,66.14
2023-04-15T20:05:53.208Z,66.37
2023-04-15T20:08:19.368Z,66.30
2023-04-15T20:10:45.467Z,66.68
2023-04-15T20:13:11.580Z,66.46
2023-04-15T20:15:37.746Z,66.15
2023-04-15T20:18:03.960Z,65.73
2023-04-15T20:20:30.082Z,65.50
2023-04-15T20:22:56.304Z,64.97
2023-04-15T20:25:22.434Z,65.60
2023-04-15T20:27:48.539Z,64.85
2023-04-15T20:30:14.644Z,65.91
2023-04-15T20:32:40.776Z,65.92
2023-04-15T20:35:06.937Z,67.27
2023-04-15T20:37:33.221Z,67.87
2023-04-15T20:39:59.594Z,67.46
2023-04-15T20:42:25.712Z,67.43
2023-04-15T20:44:51.825Z,67.17
2023-04-15T20:47:18.039Z,68.36
2023-04-15T20:49:44.190Z,67.97
2023-04-15T20:52:10.283Z,66.79
2023-04-15T20:54:36.397Z,65.98
2023-04-15T20:57:02.500Z,67.02
2023-04-15T20:59:28.607Z,67.27
2023-04-15T21:01:54.809Z,67.03
2023-04-15T21:04:20.984Z,66.25
2023-04-15T21:06:47.099Z,66.71
2023-04-15T21:09:13.205Z,68.79
2023-04-15T21:11:57.417Z,68.39
2023-04-15T21:14:25.390Z,66.74
2023-04-15T21:16:51.551Z,66.48
2023-04-15T21:19:17.661Z,66.09
2023-04-15T21:21:43.743Z,66.36
2023-04-15T21:24:09.867Z,66.64
2023-04-15T21:26:36.037Z,66.79
2023-04-15T21:29:02.276Z,66.56
2023-04-15T21:31:28.525Z,65.72
2023-04-15T21:33:54.633Z,66.13
2023-04-15T21:36:20.796Z,65.49
2023-04-15T21:38:46.957Z,65.76
2023-04-15T21:41:13.052Z,66.10
2023-04-15T21:43:39.146Z,65.98
2023-04-15T21:46:22.156Z,65.93
2023-04-15T21:48:49.938Z,66.37
2023-04-15T21:51:16.026Z,66.21
2023-04-15T21:53:42.216Z,66.27
2023-04-15T21:56:08.322Z,66.02
2023-04-15T21:58:34.428Z,65.44
2023-04-15T22:01:00.631Z,65.04
2023-04-15T22:03:26.909Z,64.69
2023-04-15T22:05:53.104Z,65.69
2023-04-15T22:08:19.217Z,65.12
2023-04-15T22:10:45.323Z,64.89
2023-04-15T22:13:11.484Z,65.37
2023-04-15T22:15:37.577Z,65.78
2023-04-15T22:18:03.734Z,65.80
2023-04-15T22:20:29.905Z,65.46
2023-04-15T22:22:56.014Z,64.95
2023-04-15T22:25:22.123Z,64.95
2023-04-15T22:27:48.214Z,64.80
2023-04-15T22:30:14.336Z,64.80
2023-04-15T22:32:40.514Z,65.18
2023-04-15T22:35:06.707Z,65.32
2023-04-15T22:37:32.852Z,65.67
2023-04-15T22:39:58.979Z,65.14
2023-04-15T22:42:25.136Z,64.44
2023-04-15T22:44:51.239Z,64.38
2023-04-15T22:47:17.349Z,65.18
2023-04-15T22:49:43.455Z,64.99
2023-04-15T22:52:12.273Z,64.50
2023-04-15T22:54:43.501Z,65.76
2023-04-15T22:57:09.616Z,65.95
2023-04-15T22:59:35.741Z,65.35
2023-04-15T23:02:02.072Z,65.08
2023-04-15T23:04:28.485Z,64.41
2023-04-15T23:06:54.821Z,64.63
2023-04-15T23:09:20.982Z,65.21
2023-04-15T23:11:47.110Z,65.67
2023-04-15T23:14:13.211Z,65.88
2023-04-15T23:16:39.566Z,66.15
2023-04-15T23:19:05.705Z,66.70
2023-04-15T23:21:31.812Z,66.28
2023-04-15T23:23:57.976Z,67.07
2023-04-15T23:26:24.094Z,66.57
2023-04-15T23:28:50.202Z,66.48
2023-04-15T23:31:16.431Z,65.70
2023-04-15T23:33:42.622Z,64.59
2023-04-15T23:36:08.729Z,63.85
2023-04-15T23:38:34.851Z,64.66
2023-04-15T23:41:00.941Z,63.96
2023-04-15T23:43:27.053Z,63.98
2023-04-15T23:45:53.159Z,65.06
2023-04-15T23:48:19.276Z,65.00
2023-04-15T23:50:45.394Z,64.59
2023-04-15T23:53:11.490Z,64.25
2023-04-15T23:55:37.585Z,64.06
2023-04-15T23:58:03.699Z,64.10
